メインページ
METAR-TAF:

METAR-TAF

空港 :

シカゴ, イリノイ州, アメリカ合衆国

シカゴ・オヘア国際空港

緯度: 41-58-47N, 経度: 087-54-16W, 海抜: 203m

現時点の気象観測

当レポートは42分前の00:51(UTC)に作成
南東の風 12kt
気温 16°C
湿度 29%
気圧 1017 hPa
視程: 16.1km
高度25000ftの雲は散在している

METAR: KORD 240051Z 13012KT 10SM SCT250 16/M02 A3004 RMK AO2 SLP174 T01561022

時間: 20:33 (01:33 UTC)

予報

当レポートは2時間13分前の23:20(UTC)に作成
予報は24日の 00時(UTC)から 25日の 06時(UTC)まで有効
の風 10kt
視程: 10km
晴天
24日の 0030時(UTC)から
東/北東の風 11kt
視程: 10km
高度25000ftの雲はほとんどない
24日の 0300時(UTC)から
東/北東の風 6kt
視程: 10km
高度25000ftの雲はほとんどない
24日の 1500時(UTC)から
東/南東の風 11kt
視程: 10km
高度25000ftの雲はほとんどない
24日の 2200時(UTC)から
の風 11kt
視程: 10km
高度25000ftの雲はほとんどない
25日の 0100時(UTC)から
東/南東の風 9kt
視程: 10km
高度25000ftの雲はほとんどない

TAF: KORD 232320Z 2400/2506 09010KT P6SM SKC FM240030 06011KT P6SM FEW250 FM240300 07006KT P6SM FEW250 FM241500 12011KT P6SM FEW250 FM242200 09011KT P6SM FEW250 FM250100 12009KT P6SM FEW250

4,000以上の空港の気象観測と天気予報(METAR報とTAF報)

利用可能な観測所は地図上に黄色い丸と赤い丸で示す。

丸の上にカーソルを重ねると観測所名を参照できる。

次にクリックすると気象観測と天気予報を参照できる。

マップの切り替え:黒色「×」印の緑ボタンをクリックして拡大、「-」印の緑ボタンをクリックして縮小、緑色の三角印をクリックして隣りの地図に切り替え


METAR-TAF: